createdAt,value
2022-11-16T00:02:22.498Z,50.33
2022-11-16T00:04:50.333Z,56.50
2022-11-16T00:07:18.086Z,63.90
2022-11-16T00:09:46.113Z,60.38
2022-11-16T00:12:13.643Z,63.35
2022-11-16T00:14:42.964Z,73.65
2022-11-16T00:17:10.579Z,45.00
2022-11-16T00:19:38.436Z,48.95
2022-11-16T00:22:06.238Z,47.25
2022-11-16T00:24:34.711Z,54.72
2022-11-16T00:27:02.135Z,58.90
2022-11-16T00:29:30.027Z,63.17
2022-11-16T00:31:59.051Z,65.28
2022-11-16T00:34:27.080Z,71.97
2022-11-16T00:36:54.666Z,77.97
2022-11-16T00:39:22.508Z,73.30
2022-11-16T00:41:50.672Z,71.90
2022-11-16T00:44:18.554Z,80.90
2022-11-16T00:46:46.147Z,51.35
2022-11-16T00:49:15.776Z,65.47
2022-11-16T00:51:43.212Z,68.20
2022-11-16T00:54:11.755Z,62.88
2022-11-16T00:56:39.433Z,72.32
2022-11-16T00:59:07.667Z,52.92
2022-11-16T01:01:35.245Z,53.50
2022-11-16T01:04:03.363Z,54.42
2022-11-16T01:06:32.750Z,49.20
2022-11-16T01:09:03.545Z,59.53
2022-11-16T01:11:31.281Z,60.35
2022-11-16T01:13:59.472Z,63.80
2022-11-16T01:16:26.895Z,62.15
2022-11-16T01:18:55.645Z,66.72
2022-11-16T01:21:23.726Z,62.58
2022-11-16T01:23:53.357Z,64.60
2022-11-16T01:26:20.992Z,73.72
2022-11-16T01:28:49.219Z,58.70
2022-11-16T01:31:16.634Z,65.50
2022-11-16T01:33:44.466Z,62.85
2022-11-16T01:36:13.600Z,67.47
2022-11-16T01:38:42.648Z,46.90
2022-11-16T01:41:13.956Z,45.97
2022-11-16T01:43:57.232Z,60.47
2022-11-16T01:46:25.692Z,57.65
2022-11-16T01:49:00.711Z,57.13
2022-11-16T01:51:29.083Z,62.65
2022-11-16T01:53:59.268Z,57.65
2022-11-16T01:56:31.729Z,60.45
2022-11-16T01:58:59.735Z,56.35
2022-11-16T02:01:27.386Z,59.00
2022-11-16T02:03:55.238Z,52.85
2022-11-16T02:06:32.949Z,53.47
2022-11-16T02:09:20.054Z,58.38
2022-11-16T02:12:17.561Z,58.85
2022-11-16T02:15:03.237Z,61.42
2022-11-16T02:17:39.768Z,58.15
2022-11-16T02:20:36.288Z,70.10
2022-11-16T02:23:45.287Z,68.10
2022-11-16T02:26:32.332Z,55.38
2022-11-16T02:31:49.678Z,52.67
2022-11-16T02:34:19.482Z,55.65
2022-11-16T02:36:50.201Z,58.08
2022-11-16T02:39:21.734Z,61.30
2022-11-16T02:41:50.993Z,67.32
2022-11-16T02:44:23.126Z,72.40
2022-11-16T02:47:01.890Z,66.00
2022-11-16T02:49:31.331Z,77.15
2022-11-16T02:51:59.735Z,71.78
2022-11-16T02:54:30.259Z,75.55
2022-11-16T02:57:24.123Z,81.85
2022-11-16T02:59:56.692Z,77.28
2022-11-16T03:02:29.810Z,81.88
2022-11-16T03:05:01.821Z,80.20
2022-11-16T03:10:00.738Z,66.45
2022-11-16T03:12:32.723Z,69.88
2022-11-16T03:15:05.185Z,74.95
2022-11-16T03:17:38.174Z,60.58
2022-11-16T03:22:39.510Z,59.42
2022-11-16T03:25:09.781Z,64.25
2022-11-16T03:27:41.614Z,65.60
2022-11-16T03:30:13.089Z,65.50
2022-11-16T03:32:45.990Z,72.07
2022-11-16T03:35:19.553Z,71.65
2022-11-16T03:37:49.216Z,71.18
2022-11-16T03:40:18.411Z,76.78
2022-11-16T03:42:47.768Z,69.47
2022-11-16T03:45:18.931Z,73.75
2022-11-16T03:47:47.156Z,68.20
2022-11-16T03:50:15.086Z,76.88
2022-11-16T03:52:42.967Z,77.75
2022-11-16T03:55:10.319Z,75.07
2022-11-16T03:57:38.095Z,73.57
2022-11-16T04:00:07.210Z,72.47
2022-11-16T04:02:36.327Z,74.75
2022-11-16T04:05:03.966Z,73.90
2022-11-16T04:07:31.747Z,75.25
2022-11-16T04:09:59.270Z,71.68
2022-11-16T04:12:27.776Z,64.35
2022-11-16T04:14:55.247Z,71.60
2022-11-16T04:17:25.130Z,71.75
2022-11-16T04:19:57.943Z,82.03
2022-11-16T04:22:30.946Z,78.55
2022-11-16T04:25:05.301Z,66.72
2022-11-16T04:27:33.139Z,72.97
2022-11-16T04:30:02.227Z,77.53
2022-11-16T04:32:30.148Z,78.05
2022-11-16T04:34:59.285Z,76.18
2022-11-16T04:37:26.923Z,79.32
2022-11-16T04:39:54.271Z,78.85
2022-11-16T04:42:22.280Z,71.10
2022-11-16T04:44:49.690Z,78.60
2022-11-16T04:47:17.518Z,82.68
2022-11-16T04:49:44.917Z,71.63
2022-11-16T04:52:14.094Z,72.60
2022-11-16T04:54:41.534Z,72.53
2022-11-16T04:57:09.569Z,52.78
2022-11-16T04:59:37.134Z,57.53
2022-11-16T05:02:05.244Z,59.17
2022-11-16T05:04:32.763Z,57.03
2022-11-16T05:07:00.778Z,52.47
2022-11-16T05:09:29.689Z,55.97
2022-11-16T05:11:57.798Z,47.33
2022-11-16T05:14:25.463Z,53.40
2022-11-16T05:16:53.355Z,55.42
2022-11-16T05:19:20.801Z,51.63
2022-11-16T05:21:48.837Z,56.20
2022-11-16T05:24:16.156Z,41.67
2022-11-16T05:26:45.659Z,42.80
2022-11-16T05:29:13.101Z,52.30
2022-11-16T05:31:41.125Z,40.95
2022-11-16T05:34:09.287Z,51.13
2022-11-16T05:36:37.253Z,51.13
2022-11-16T05:39:05.446Z,46.78
2022-11-16T05:41:33.905Z,49.45
2022-11-16T05:44:02.719Z,49.53
2022-11-16T05:46:30.986Z,47.55
2022-11-16T05:48:58.699Z,56.15
2022-11-16T05:51:26.536Z,47.08
2022-11-16T05:53:53.923Z,45.08
2022-11-16T05:56:21.893Z,44.50
2022-11-16T05:58:49.703Z,41.35
2022-11-16T06:01:19.070Z,46.05
2022-11-16T06:03:46.509Z,53.90
2022-11-16T06:06:14.575Z,48.08
2022-11-16T06:08:42.444Z,57.72
2022-11-16T06:11:13.071Z,49.08
2022-11-16T06:13:40.603Z,52.65
2022-11-16T06:16:08.967Z,48.47
2022-11-16T06:18:40.248Z,57.08
2022-11-16T06:21:08.853Z,65.78
2022-11-16T06:23:36.217Z,48.90
2022-11-16T06:26:05.161Z,50.95
2022-11-16T06:28:33.464Z,53.85
2022-11-16T06:31:02.238Z,63.38
2022-11-16T06:33:33.316Z,60.60
2022-11-16T06:36:03.114Z,55.83
2022-11-16T06:38:30.701Z,63.00
2022-11-16T06:40:59.072Z,54.60
2022-11-16T06:43:27.059Z,67.15
2022-11-16T06:45:57.066Z,62.28
2022-11-16T06:48:24.737Z,54.28
2022-11-16T06:50:53.091Z,59.13
2022-11-16T06:53:27.545Z,64.43
2022-11-16T06:56:01.319Z,56.92
2022-11-16T06:58:29.855Z,56.25
2022-11-16T07:00:57.779Z,62.10
2022-11-16T07:03:25.560Z,60.63
2022-11-16T07:05:53.377Z,57.67
2022-11-16T07:08:22.183Z,62.38
2022-11-16T07:10:50.242Z,62.88
2022-11-16T07:13:17.684Z,63.47
2022-11-16T07:15:45.517Z,63.58
2022-11-16T07:18:12.943Z,61.25
2022-11-16T07:20:40.678Z,62.03
2022-11-16T07:23:12.903Z,65.97
2022-11-16T07:25:43.897Z,56.78
2022-11-16T07:28:11.250Z,65.95
2022-11-16T07:30:39.107Z,53.63
2022-11-16T07:33:06.473Z,60.97
2022-11-16T07:35:35.018Z,69.43
2022-11-16T07:38:03.179Z,63.80
2022-11-16T07:40:31.106Z,62.33
2022-11-16T07:43:00.045Z,69.43
2022-11-16T07:45:27.865Z,66.45
2022-11-16T07:47:55.330Z,61.88
2022-11-16T07:50:23.615Z,58.72
2022-11-16T07:52:50.890Z,59.90
2022-11-16T07:55:18.774Z,57.03
2022-11-16T07:57:51.912Z,58.58
2022-11-16T08:00:22.760Z,65.85
2022-11-16T08:02:50.072Z,70.18
2022-11-16T08:05:17.886Z,60.90
2022-11-16T08:07:45.337Z,63.30
2022-11-16T08:10:13.235Z,55.50
2022-11-16T08:12:40.732Z,67.75
2022-11-16T08:15:09.210Z,60.00
2022-11-16T08:17:38.063Z,64.97
2022-11-16T08:20:07.047Z,62.45
2022-11-16T08:22:34.430Z,57.83
2022-11-16T08:25:02.362Z,57.22
2022-11-16T08:27:30.939Z,59.80
2022-11-16T08:29:59.352Z,59.30
2022-11-16T08:32:26.753Z,62.60
2022-11-16T08:34:56.270Z,55.42
2022-11-16T08:37:26.428Z,58.47
2022-11-16T08:39:54.576Z,56.42
2022-11-16T08:42:22.098Z,57.75
2022-11-16T08:44:50.206Z,54.80
2022-11-16T08:47:18.020Z,52.17
2022-11-16T08:49:49.857Z,58.05
2022-11-16T08:52:18.980Z,60.50
2022-11-16T08:54:46.878Z,65.53
2022-11-16T08:57:14.303Z,50.53
2022-11-16T08:59:42.115Z,48.15
2022-11-16T09:02:09.964Z,53.15
2022-11-16T09:04:37.938Z,59.45
2022-11-16T09:07:08.330Z,54.00
2022-11-16T09:09:37.974Z,60.60
2022-11-16T09:12:05.925Z,62.70
2022-11-16T09:14:33.675Z,61.95
2022-11-16T09:17:01.081Z,62.15
2022-11-16T09:19:28.815Z,57.95
2022-11-16T09:21:56.241Z,67.93
2022-11-16T09:24:24.041Z,65.43
2022-11-16T09:26:52.770Z,55.17
2022-11-16T09:29:20.524Z,68.00
2022-11-16T09:31:47.819Z,60.28
2022-11-16T09:34:15.673Z,61.25
2022-11-16T09:36:43.323Z,67.70
2022-11-16T09:39:30.540Z,70.28
2022-11-16T09:42:16.651Z,58.05
2022-11-16T09:44:58.923Z,55.33
2022-11-16T09:47:44.728Z,63.67
2022-11-16T09:50:31.707Z,56.40
2022-11-16T09:53:13.302Z,59.63
2022-11-16T09:55:47.537Z,65.00
2022-11-16T09:58:23.079Z,53.28
2022-11-16T10:00:59.029Z,52.72
2022-11-16T10:03:28.965Z,51.28
2022-11-16T10:06:01.586Z,45.05
2022-11-16T10:08:41.354Z,53.70
2022-11-16T10:11:31.558Z,55.08
2022-11-16T10:14:17.191Z,53.53
2022-11-16T10:16:49.903Z,44.47
2022-11-16T10:19:27.410Z,57.88
2022-11-16T10:22:01.959Z,54.35
2022-11-16T10:24:36.176Z,59.63
2022-11-16T10:27:27.757Z,50.03
2022-11-16T10:30:07.378Z,52.65
2022-11-16T10:32:39.940Z,49.13
2022-11-16T10:35:16.153Z,57.15
2022-11-16T10:37:48.230Z,52.90
2022-11-16T10:40:21.755Z,57.70
2022-11-16T10:42:58.996Z,55.58
2022-11-16T10:45:35.288Z,48.63
2022-11-16T10:48:14.814Z,55.90
2022-11-16T10:50:45.467Z,52.30
2022-11-16T10:53:14.223Z,62.22
2022-11-16T10:55:42.158Z,50.03
2022-11-16T10:58:10.161Z,45.17
2022-11-16T11:00:43.685Z,51.67
2022-11-16T11:03:12.690Z,49.47
2022-11-16T11:05:49.531Z,58.08
2022-11-16T11:08:26.867Z,45.38
2022-11-16T11:11:03.095Z,51.90
2022-11-16T11:13:35.818Z,53.83
2022-11-16T11:18:47.523Z,45.92
2022-11-16T11:21:19.154Z,52.28
2022-11-16T11:23:49.295Z,47.10
2022-11-16T11:26:34.684Z,53.85
2022-11-16T11:29:15.834Z,50.45
2022-11-16T11:31:49.119Z,55.22
2022-11-16T11:34:21.833Z,48.42
2022-11-16T11:36:52.973Z,53.08
2022-11-16T11:39:39.281Z,52.20
2022-11-16T11:42:20.928Z,47.40
2022-11-16T11:44:56.487Z,46.38
2022-11-16T11:50:45.364Z,44.47
2022-11-16T11:53:24.125Z,45.22
2022-11-16T11:58:26.814Z,47.13
2022-11-16T12:01:09.213Z,41.45
2022-11-16T12:03:50.158Z,48.92
2022-11-16T12:06:30.908Z,51.70
2022-11-16T12:09:13.000Z,46.25
2022-11-16T12:11:56.055Z,48.75
2022-11-16T12:14:35.153Z,43.65
2022-11-16T12:17:12.334Z,38.28
2022-11-16T12:19:55.121Z,43.38
2022-11-16T12:22:48.709Z,47.42
2022-11-16T12:25:25.320Z,44.65
2022-11-16T12:28:11.296Z,40.33
2022-11-16T12:30:49.666Z,43.13
2022-11-16T12:33:29.506Z,45.92
2022-11-16T12:36:02.174Z,52.85
2022-11-16T12:38:43.482Z,48.97
2022-11-16T12:41:40.975Z,40.45
2022-11-16T12:44:11.043Z,48.30
2022-11-16T12:46:50.381Z,43.95
2022-11-16T12:49:37.479Z,45.58
2022-11-16T12:52:22.205Z,47.33
2022-11-16T12:55:29.577Z,46.80
2022-11-16T12:58:11.029Z,42.83
2022-11-16T13:00:51.324Z,56.85
2022-11-16T13:03:23.795Z,44.53
2022-11-16T13:05:59.416Z,56.20
2022-11-16T13:08:40.955Z,53.88
2022-11-16T13:11:15.846Z,53.75
2022-11-16T13:13:49.603Z,54.42
2022-11-16T13:16:22.301Z,51.33
2022-11-16T13:18:51.412Z,45.17
2022-11-16T13:21:28.449Z,49.53
2022-11-16T13:24:16.712Z,46.15
2022-11-16T13:26:54.625Z,42.42
2022-11-16T13:29:32.075Z,48.50
2022-11-16T13:32:09.003Z,44.20
2022-11-16T13:34:39.516Z,40.17
2022-11-16T13:37:36.960Z,36.88
2022-11-16T13:40:29.903Z,35.15
2022-11-16T13:43:17.144Z,34.35
2022-11-16T13:45:54.428Z,34.95
2022-11-16T13:50:57.118Z,32.25
2022-11-16T13:54:25.153Z,33.80
2022-11-16T13:56:25.614Z,36.35
2022-11-16T13:58:58.513Z,34.80
2022-11-16T14:01:46.346Z,29.10
2022-11-16T14:04:34.404Z,38.10
2022-11-16T14:07:02.003Z,31.02
2022-11-16T14:09:42.596Z,29.83
2022-11-16T14:12:55.931Z,25.80
2022-11-16T14:15:28.395Z,32.22
2022-11-16T14:17:59.299Z,30.08
2022-11-16T14:20:49.870Z,35.08
2022-11-16T14:23:34.969Z,36.85
2022-11-16T14:26:12.927Z,33.45
2022-11-16T14:28:50.422Z,38.60
2022-11-16T14:31:24.494Z,38.90
2022-11-16T14:33:53.860Z,35.92
2022-11-16T14:36:37.805Z,36.50
2022-11-16T14:39:33.588Z,34.58
2022-11-16T14:42:04.535Z,37.22
2022-11-16T14:44:37.892Z,34.13
2022-11-16T14:47:20.912Z,39.00
2022-11-16T14:49:48.984Z,40.95
2022-11-16T14:52:20.784Z,42.22
2022-11-16T14:54:53.644Z,41.13
2022-11-16T14:57:23.826Z,47.30
2022-11-16T15:00:08.754Z,42.10
2022-11-16T15:02:39.817Z,53.78
2022-11-16T15:05:07.991Z,43.47
2022-11-16T15:07:36.191Z,44.55
2022-11-16T15:10:14.235Z,35.90
2022-11-16T15:12:42.674Z,38.58
2022-11-16T15:15:15.898Z,43.53
2022-11-16T15:17:51.553Z,36.90
2022-11-16T15:20:21.284Z,39.80
2022-11-16T15:22:52.015Z,43.90
2022-11-16T15:25:30.497Z,48.05
2022-11-16T15:30:31.110Z,40.25
2022-11-16T15:33:02.958Z,35.75
2022-11-16T15:35:32.591Z,44.42
2022-11-16T15:38:16.903Z,39.10
2022-11-16T15:40:50.369Z,37.80
2022-11-16T15:43:18.997Z,32.08
2022-11-16T15:45:47.529Z,37.25
2022-11-16T15:48:20.935Z,25.08
2022-11-16T15:51:05.281Z,30.00
2022-11-16T15:53:38.532Z,24.73
2022-11-16T15:58:39.334Z,23.17
2022-11-16T16:01:07.580Z,33.10
2022-11-16T16:03:38.039Z,28.88
2022-11-16T16:06:06.516Z,26.77
2022-11-16T16:08:36.291Z,27.23
2022-11-16T16:11:10.326Z,20.42
2022-11-16T16:13:40.340Z,24.55
2022-11-16T16:16:26.669Z,24.42
2022-11-16T16:19:01.606Z,24.83
2022-11-16T16:21:42.710Z,26.40
2022-11-16T16:24:30.336Z,20.08
2022-11-16T16:26:58.184Z,21.25
2022-11-16T16:29:27.468Z,26.23
2022-11-16T16:31:55.659Z,24.23
2022-11-16T16:34:25.161Z,22.20
2022-11-16T16:36:52.623Z,19.20
2022-11-16T16:39:20.547Z,24.10
2022-11-16T16:41:48.110Z,21.42
2022-11-16T16:44:16.581Z,22.40
2022-11-16T16:46:44.217Z,21.08
2022-11-16T16:49:12.407Z,22.30
2022-11-16T16:51:41.260Z,23.02
2022-11-16T16:54:13.517Z,20.10
2022-11-16T16:56:41.040Z,23.48
2022-11-16T16:59:09.373Z,23.90
2022-11-16T17:01:36.854Z,21.27
2022-11-16T17:04:04.946Z,20.48
2022-11-16T17:06:32.447Z,26.63
2022-11-16T17:09:01.904Z,22.73
2022-11-16T17:11:29.416Z,18.48
2022-11-16T17:13:57.281Z,20.00
2022-11-16T17:16:25.210Z,22.35
2022-11-16T17:18:54.948Z,20.85
2022-11-16T17:21:22.492Z,25.77
2022-11-16T17:23:50.541Z,20.85
2022-11-16T17:26:19.644Z,24.58
2022-11-16T17:28:47.866Z,22.27
2022-11-16T17:31:15.624Z,19.35
2022-11-16T17:33:46.794Z,17.65
2022-11-16T17:36:14.701Z,23.08
2022-11-16T17:38:42.827Z,19.08
2022-11-16T17:41:11.875Z,20.90
2022-11-16T17:44:06.247Z,20.80
2022-11-16T17:46:34.004Z,21.20
2022-11-16T17:49:02.097Z,20.80
2022-11-16T17:51:29.808Z,25.35
2022-11-16T17:53:57.814Z,22.67
2022-11-16T17:56:26.213Z,18.05
2022-11-16T17:58:54.615Z,21.85
2022-11-16T18:01:23.851Z,18.10
2022-11-16T18:03:51.904Z,20.30
2022-11-16T18:06:21.181Z,18.30
2022-11-16T18:08:49.711Z,14.63
2022-11-16T18:11:18.748Z,15.27
2022-11-16T18:13:48.029Z,15.90
2022-11-16T18:16:17.060Z,15.75
2022-11-16T18:18:48.175Z,11.50
2022-11-16T18:21:20.799Z,14.05
2022-11-16T18:23:49.141Z,13.18
2022-11-16T18:26:18.765Z,10.63
2022-11-16T18:28:46.979Z,7.18
2022-11-16T18:31:16.454Z,9.02
2022-11-16T18:33:46.520Z,13.55
2022-11-16T18:36:14.021Z,9.02
2022-11-16T18:38:41.955Z,10.30
2022-11-16T18:41:16.967Z,5.07
2022-11-16T18:43:48.858Z,5.97
2022-11-16T18:46:16.507Z,7.38
2022-11-16T18:48:44.541Z,9.57
2022-11-16T18:51:14.573Z,8.20
2022-11-16T18:53:42.964Z,9.93
2022-11-16T18:56:10.424Z,10.20
2022-11-16T18:58:54.093Z,13.15
2022-11-16T19:01:23.555Z,11.07
2022-11-16T19:03:52.673Z,8.50
2022-11-16T19:06:22.808Z,9.90
2022-11-16T19:08:56.010Z,9.20
2022-11-16T19:11:24.414Z,10.20
2022-11-16T19:13:53.892Z,10.68
2022-11-16T19:16:21.936Z,10.65
2022-11-16T19:18:49.965Z,8.55
2022-11-16T19:21:18.533Z,6.18
2022-11-16T19:23:49.688Z,7.88
2022-11-16T19:26:19.388Z,9.98
2022-11-16T19:28:49.122Z,10.10
2022-11-16T19:31:18.922Z,7.75
2022-11-16T19:33:47.151Z,9.95
2022-11-16T19:36:16.740Z,6.55
2022-11-16T19:38:47.833Z,10.27
2022-11-16T19:41:17.281Z,10.35
2022-11-16T19:43:45.191Z,14.27
2022-11-16T19:46:15.139Z,12.73
2022-11-16T19:48:43.765Z,11.38
2022-11-16T19:51:13.499Z,12.00
2022-11-16T19:53:41.703Z,6.60
2022-11-16T19:56:12.770Z,10.27
2022-11-16T19:58:42.297Z,6.40
2022-11-16T20:01:12.024Z,7.75
2022-11-16T20:03:40.288Z,10.02
2022-11-16T20:06:09.734Z,9.30
2022-11-16T20:08:39.333Z,9.75
2022-11-16T20:11:16.503Z,8.10
2022-11-16T20:13:44.650Z,9.82
2022-11-16T20:16:15.936Z,10.50
2022-11-16T20:18:44.490Z,10.35
2022-11-16T20:21:16.796Z,14.38
2022-11-16T20:23:45.577Z,14.27
2022-11-16T20:26:15.306Z,15.55
2022-11-16T20:28:44.720Z,9.00
2022-11-16T20:31:14.870Z,12.55
2022-11-16T20:33:49.609Z,11.38
2022-11-16T20:36:17.077Z,11.68
2022-11-16T20:38:45.167Z,12.82
2022-11-16T20:41:16.021Z,13.50
2022-11-16T20:43:45.359Z,10.45
2022-11-16T20:46:14.641Z,12.48
2022-11-16T20:48:43.899Z,14.13
2022-11-16T20:51:14.041Z,13.95
2022-11-16T20:53:41.881Z,12.50
2022-11-16T20:56:10.964Z,16.50
2022-11-16T20:58:40.652Z,14.05
2022-11-16T21:01:10.745Z,13.50
2022-11-16T21:03:38.849Z,15.43
2022-11-16T21:06:07.166Z,15.98
2022-11-16T21:08:35.825Z,9.27
2022-11-16T21:11:10.236Z,10.73
2022-11-16T21:13:39.770Z,14.18
2022-11-16T21:16:09.769Z,9.48
2022-11-16T21:18:40.770Z,10.60
2022-11-16T21:21:10.861Z,12.52
2022-11-16T21:23:39.898Z,11.57
2022-11-16T21:26:11.043Z,6.10
2022-11-16T21:28:41.709Z,13.40
2022-11-16T21:31:12.103Z,13.85
2022-11-16T21:33:40.467Z,14.68
2022-11-16T21:36:11.010Z,16.15
2022-11-16T21:38:39.112Z,8.93
2022-11-16T21:41:07.450Z,12.00
2022-11-16T21:43:36.314Z,12.30
2022-11-16T21:46:07.645Z,12.38
2022-11-16T21:48:36.458Z,13.10
2022-11-16T21:51:05.753Z,13.48
2022-11-16T21:53:34.409Z,7.90
2022-11-16T21:56:03.192Z,13.18
2022-11-16T21:58:31.622Z,13.65
2022-11-16T22:01:00.521Z,10.85
2022-11-16T22:03:31.592Z,12.25
2022-11-16T22:06:00.992Z,13.48
2022-11-16T22:08:28.861Z,11.57
2022-11-16T22:10:56.313Z,12.77
2022-11-16T22:13:24.215Z,11.45
2022-11-16T22:15:51.617Z,13.13
2022-11-16T22:18:19.127Z,17.17
2022-11-16T22:20:49.787Z,11.70
2022-11-16T22:23:21.532Z,15.52
2022-11-16T22:25:50.735Z,13.02
2022-11-16T22:28:20.963Z,13.70
2022-11-16T22:30:51.984Z,13.98
2022-11-16T22:33:19.836Z,14.77
2022-11-16T22:35:49.040Z,14.60
2022-11-16T22:38:16.553Z,12.02
2022-11-16T22:40:49.202Z,14.88
2022-11-16T22:43:16.734Z,6.47
2022-11-16T22:45:44.481Z,11.00
2022-11-16T22:48:11.989Z,11.35
2022-11-16T22:50:39.782Z,6.75
2022-11-16T22:53:08.533Z,8.95
2022-11-16T22:55:37.134Z,9.65
2022-11-16T22:58:05.152Z,4.70
2022-11-16T23:00:37.531Z,10.82
2022-11-16T23:03:08.150Z,8.32
2022-11-16T23:05:36.032Z,9.00
2022-11-16T23:08:03.836Z,9.27
2022-11-16T23:10:33.121Z,13.50
2022-11-16T23:13:00.633Z,10.60
2022-11-16T23:15:28.740Z,10.48
2022-11-16T23:17:56.153Z,11.75
2022-11-16T23:20:24.066Z,7.95
2022-11-16T23:22:51.347Z,8.60
2022-11-16T23:25:19.405Z,6.78
2022-11-16T23:27:55.601Z,7.47
2022-11-16T23:30:25.503Z,8.73
2022-11-16T23:32:53.271Z,11.25
2022-11-16T23:35:21.411Z,11.45
2022-11-16T23:37:55.576Z,8.80
2022-11-16T23:40:25.412Z,11.10
2022-11-16T23:42:55.032Z,13.05
2022-11-16T23:45:22.861Z,11.13
2022-11-16T23:47:50.316Z,11.65
2022-11-16T23:50:18.299Z,11.68
2022-11-16T23:52:45.727Z,11.90
2022-11-16T23:55:13.569Z,13.43
2022-11-16T23:57:41.176Z,12.38
